createdAt,value
2022-10-19T00:02:37.225Z,20.37
2022-10-19T00:05:41.749Z,21.27
2022-10-19T00:08:45.429Z,20.67
2022-10-19T00:11:50.439Z,19.83
2022-10-19T00:14:53.779Z,20.17
2022-10-19T00:17:57.001Z,21.25
2022-10-19T00:21:06.306Z,20.55
2022-10-19T00:24:09.972Z,19.77
2022-10-19T00:27:13.269Z,19.53
2022-10-19T00:30:17.717Z,19.08
2022-10-19T00:33:22.633Z,19.17
2022-10-19T00:36:29.515Z,17.33
2022-10-19T00:39:32.698Z,18.02
2022-10-19T00:42:36.015Z,18.15
2022-10-19T00:45:39.236Z,18.83
2022-10-19T00:48:42.610Z,18.80
2022-10-19T00:51:51.305Z,18.45
2022-10-19T00:54:56.769Z,18.90
2022-10-19T00:58:00.804Z,18.15
2022-10-19T01:01:06.117Z,16.90
2022-10-19T01:04:09.555Z,17.02
2022-10-19T01:07:13.709Z,17.55
2022-10-19T01:10:17.791Z,18.00
2022-10-19T01:13:49.973Z,16.90
2022-10-19T01:17:26.932Z,16.92
2022-10-19T01:20:57.731Z,16.60
2022-10-19T01:24:38.454Z,17.20
2022-10-19T01:28:19.535Z,16.02
2022-10-19T01:32:02.607Z,16.87
2022-10-19T01:35:11.689Z,17.75
2022-10-19T01:38:29.790Z,17.37
2022-10-19T01:41:36.939Z,16.77
2022-10-19T01:45:00.199Z,17.83
2022-10-19T01:48:12.465Z,17.37
2022-10-19T01:51:25.965Z,16.90
2022-10-19T01:54:36.438Z,16.70
2022-10-19T01:57:47.481Z,17.25
2022-10-19T02:00:53.926Z,17.70
2022-10-19T02:03:58.433Z,17.23
2022-10-19T02:07:04.563Z,17.92
2022-10-19T02:10:08.695Z,17.75
2022-10-19T02:13:15.670Z,17.60
2022-10-19T02:16:25.751Z,16.55
2022-10-19T02:19:29.108Z,17.67
2022-10-19T02:22:32.584Z,17.52
2022-10-19T02:25:36.911Z,17.73
2022-10-19T02:28:40.130Z,17.95
2022-10-19T02:31:45.492Z,18.37
2022-10-19T02:34:48.675Z,18.73
2022-10-19T02:37:53.052Z,19.62
2022-10-19T02:41:11.713Z,18.42
2022-10-19T02:44:24.442Z,18.98
2022-10-19T02:47:45.544Z,18.20
2022-10-19T02:50:49.734Z,17.92
2022-10-19T02:53:53.261Z,17.45
2022-10-19T02:56:57.843Z,17.30
2022-10-19T03:00:01.209Z,15.83
2022-10-19T03:03:05.184Z,16.70
2022-10-19T03:06:08.352Z,16.52
2022-10-19T03:09:11.838Z,17.75
2022-10-19T03:12:15.850Z,16.75
2022-10-19T03:15:19.835Z,17.25
2022-10-19T03:18:22.836Z,17.10
2022-10-19T03:21:26.176Z,18.10
2022-10-19T03:24:30.828Z,17.48
2022-10-19T03:27:34.415Z,18.25
2022-10-19T03:30:42.611Z,17.92
2022-10-19T03:33:46.151Z,17.83
2022-10-19T03:36:49.338Z,17.85
2022-10-19T03:39:52.890Z,17.83
2022-10-19T03:42:56.203Z,18.80
2022-10-19T03:45:59.447Z,18.87
2022-10-19T03:49:03.844Z,21.12
2022-10-19T03:52:10.162Z,19.45
2022-10-19T03:55:13.716Z,19.57
2022-10-19T03:58:17.051Z,18.70
2022-10-19T04:01:27.220Z,19.27
2022-10-19T04:04:30.628Z,18.55
2022-10-19T04:07:33.840Z,23.15
2022-10-19T04:10:39.205Z,20.33
2022-10-19T04:13:43.062Z,19.95
2022-10-19T04:16:46.347Z,31.23
2022-10-19T04:19:49.832Z,22.60
2022-10-19T04:22:53.691Z,21.40
2022-10-19T04:26:05.023Z,21.20
2022-10-19T04:29:09.212Z,22.17
2022-10-19T04:32:12.549Z,23.23
2022-10-19T04:35:17.804Z,22.10
2022-10-19T04:38:29.910Z,23.03
2022-10-19T04:41:34.993Z,21.85
2022-10-19T04:44:39.736Z,23.75
2022-10-19T04:47:42.974Z,22.50
2022-10-19T04:50:47.683Z,22.13
2022-10-19T04:53:59.613Z,22.20
2022-10-19T04:57:03.023Z,21.27
2022-10-19T05:00:07.977Z,27.70
2022-10-19T05:03:11.150Z,28.10
2022-10-19T05:06:15.948Z,25.60
2022-10-19T05:09:18.995Z,25.12
2022-10-19T05:12:23.988Z,25.57
2022-10-19T05:15:27.089Z,24.35
2022-10-19T05:18:30.681Z,24.05
2022-10-19T05:21:33.895Z,24.30
2022-10-19T05:24:37.299Z,24.87
2022-10-19T05:27:40.540Z,23.60
2022-10-19T05:30:49.082Z,25.10
2022-10-19T05:33:52.323Z,25.73
2022-10-19T05:36:56.719Z,25.90
2022-10-19T05:39:59.862Z,29.17
2022-10-19T05:43:03.094Z,26.83
2022-10-19T05:46:08.603Z,25.47
2022-10-19T05:49:13.102Z,27.92
2022-10-19T05:52:18.070Z,27.10
2022-10-19T05:55:22.301Z,27.07
2022-10-19T05:58:25.897Z,27.95
2022-10-19T06:01:30.560Z,30.83
2022-10-19T06:04:35.070Z,29.85
2022-10-19T06:07:38.100Z,33.37
2022-10-19T06:10:44.085Z,34.00
2022-10-19T06:13:50.606Z,30.90
2022-10-19T06:16:53.863Z,28.85
2022-10-19T06:19:56.926Z,27.73
2022-10-19T06:23:00.625Z,34.92
2022-10-19T06:26:06.909Z,24.27
2022-10-19T06:29:10.542Z,20.33
2022-10-19T06:32:13.734Z,18.65
2022-10-19T06:35:17.487Z,15.13
2022-10-19T06:38:20.570Z,15.45
2022-10-19T06:41:24.209Z,10.98
2022-10-19T06:44:27.551Z,10.93
2022-10-19T06:47:34.121Z,9.02
2022-10-19T06:50:37.867Z,8.13
2022-10-19T06:53:41.306Z,7.60
2022-10-19T06:56:44.536Z,7.00
2022-10-19T06:59:51.449Z,6.85
2022-10-19T07:02:58.327Z,6.05
2022-10-19T07:06:04.209Z,6.10
2022-10-19T07:09:09.819Z,6.30
2022-10-19T07:12:13.126Z,5.80
2022-10-19T07:15:17.394Z,5.85
2022-10-19T07:18:20.583Z,5.47
2022-10-19T07:21:24.598Z,5.70
2022-10-19T07:24:27.933Z,4.95
2022-10-19T07:27:36.709Z,4.43
2022-10-19T07:30:42.454Z,4.50
2022-10-19T07:33:45.527Z,5.00
2022-10-19T07:36:49.380Z,4.70
2022-10-19T07:39:52.811Z,4.60
2022-10-19T07:42:56.269Z,5.43
2022-10-19T07:46:05.930Z,4.68
2022-10-19T07:49:13.966Z,4.50
2022-10-19T07:52:17.249Z,4.60
2022-10-19T07:55:20.535Z,4.97
2022-10-19T07:58:23.609Z,5.32
2022-10-19T08:01:32.712Z,4.90
2022-10-19T08:05:01.240Z,4.70
2022-10-19T08:08:00.025Z,4.80
2022-10-19T08:11:08.660Z,5.00
2022-10-19T08:14:11.687Z,4.37
2022-10-19T08:17:17.785Z,4.10
2022-10-19T08:20:21.360Z,4.18
2022-10-19T08:23:24.964Z,3.70
2022-10-19T08:26:30.225Z,3.67
2022-10-19T08:29:33.803Z,3.95
2022-10-19T08:32:38.104Z,3.95
2022-10-19T08:35:41.696Z,3.47
2022-10-19T08:38:49.125Z,3.57
2022-10-19T08:41:58.769Z,3.47
2022-10-19T08:45:25.975Z,3.80
2022-10-19T08:48:33.530Z,3.30
2022-10-19T08:51:40.384Z,2.92
2022-10-19T08:54:49.840Z,3.43
2022-10-19T08:58:24.860Z,3.30
2022-10-19T09:01:40.912Z,3.70
2022-10-19T09:04:50.532Z,3.00
2022-10-19T09:07:54.916Z,3.00
2022-10-19T09:10:59.149Z,3.53
2022-10-19T09:14:16.393Z,3.08
2022-10-19T09:17:21.649Z,2.65
2022-10-19T09:20:48.159Z,2.65
2022-10-19T09:23:55.713Z,3.08
2022-10-19T09:27:01.004Z,3.20
2022-10-19T09:30:16.056Z,2.60
2022-10-19T09:33:27.273Z,2.70
2022-10-19T09:36:50.011Z,2.95
2022-10-19T09:39:55.782Z,2.60
2022-10-19T09:42:59.710Z,2.10
2022-10-19T09:46:19.774Z,2.00
2022-10-19T09:50:05.628Z,2.47
2022-10-19T09:53:19.515Z,2.55
2022-10-19T09:56:24.385Z,2.50
2022-10-19T09:59:33.234Z,2.17
2022-10-19T10:02:36.762Z,2.17
2022-10-19T10:05:41.313Z,2.40
2022-10-19T10:08:51.183Z,2.85
2022-10-19T10:11:59.419Z,2.40
2022-10-19T10:15:06.261Z,1.90
2022-10-19T10:18:15.824Z,2.03
2022-10-19T10:21:47.229Z,1.95
2022-10-19T10:24:53.811Z,2.03
2022-10-19T10:28:02.912Z,1.67
2022-10-19T10:31:09.265Z,1.50
2022-10-19T10:34:30.268Z,1.40
2022-10-19T10:37:43.744Z,1.83
2022-10-19T10:41:12.188Z,1.60
2022-10-19T10:44:23.389Z,1.55
2022-10-19T10:47:27.876Z,1.60
2022-10-19T10:50:36.200Z,1.50
2022-10-19T10:53:43.526Z,1.37
2022-10-19T10:57:13.318Z,1.62
2022-10-19T11:00:20.236Z,1.80
2022-10-19T11:03:29.003Z,1.50
2022-10-19T11:06:42.271Z,2.22
2022-10-19T11:09:58.738Z,1.50
2022-10-19T11:13:10.419Z,1.20
2022-10-19T11:16:19.784Z,1.50
2022-10-19T11:19:35.405Z,1.77
2022-10-19T11:22:49.305Z,1.50
2022-10-19T11:26:03.111Z,3.40
2022-10-19T11:29:46.021Z,2.33
2022-10-19T11:32:58.858Z,2.12
2022-10-19T11:36:17.938Z,1.30
2022-10-19T11:39:39.512Z,2.03
2022-10-19T11:42:54.931Z,2.70
2022-10-19T11:46:20.274Z,1.77
2022-10-19T11:49:49.311Z,1.50
2022-10-19T11:52:59.362Z,2.47
2022-10-19T11:56:05.811Z,1.48
2022-10-19T11:59:53.613Z,2.53
2022-10-19T12:03:09.059Z,2.00
2022-10-19T12:06:37.495Z,1.62
2022-10-19T12:09:48.311Z,2.13
2022-10-19T12:12:59.088Z,1.80
2022-10-19T12:16:04.450Z,1.50
2022-10-19T12:19:16.469Z,1.55
2022-10-19T12:22:28.394Z,1.62
2022-10-19T12:25:34.642Z,2.50
2022-10-19T12:28:40.636Z,1.75
2022-10-19T12:31:46.494Z,1.48
2022-10-19T12:35:21.627Z,1.73
2022-10-19T12:38:30.853Z,1.45
2022-10-19T12:41:45.130Z,1.50
2022-10-19T12:45:09.730Z,1.20
2022-10-19T12:48:21.767Z,1.55
2022-10-19T12:51:25.542Z,1.40
2022-10-19T12:54:32.081Z,1.48
2022-10-19T12:57:40.368Z,1.40
2022-10-19T13:01:00.774Z,1.58
2022-10-19T13:04:11.632Z,1.52
2022-10-19T13:07:18.512Z,1.95
2022-10-19T13:10:27.681Z,1.50
2022-10-19T13:13:59.192Z,1.97
2022-10-19T13:17:03.172Z,1.98
2022-10-19T13:20:15.424Z,2.30
2022-10-19T13:23:38.734Z,1.33
2022-10-19T13:26:44.925Z,1.90
2022-10-19T13:29:50.264Z,2.37
2022-10-19T13:32:53.005Z,1.75
2022-10-19T13:35:59.369Z,1.75
2022-10-19T13:39:07.896Z,1.50
2022-10-19T13:42:28.493Z,1.90
2022-10-19T13:45:31.713Z,3.90
2022-10-19T13:49:06.919Z,1.98
2022-10-19T13:52:34.166Z,2.50
2022-10-19T13:55:48.582Z,3.25
2022-10-19T13:59:10.689Z,1.92
2022-10-19T14:02:42.357Z,2.40
2022-10-19T14:06:03.469Z,2.55
2022-10-19T14:09:27.365Z,4.30
2022-10-19T14:12:34.131Z,2.22
2022-10-19T14:15:37.179Z,2.08
2022-10-19T14:18:42.465Z,2.10
2022-10-19T14:21:45.866Z,2.30
2022-10-19T14:24:49.324Z,2.37
2022-10-19T14:28:02.192Z,2.08
2022-10-19T14:31:21.921Z,2.40
2022-10-19T14:34:25.004Z,2.50
2022-10-19T14:37:28.414Z,2.30
2022-10-19T14:40:41.864Z,2.45
2022-10-19T14:43:47.815Z,2.30
2022-10-19T14:46:50.875Z,2.10
2022-10-19T14:49:54.223Z,2.47
2022-10-19T14:53:10.413Z,1.83
2022-10-19T14:56:25.165Z,2.08
2022-10-19T14:59:50.929Z,2.83
2022-10-19T15:03:20.747Z,3.00
2022-10-19T15:06:33.047Z,2.67
2022-10-19T15:09:48.275Z,2.20
2022-10-19T15:12:57.518Z,2.50
2022-10-19T15:16:01.115Z,2.75
2022-10-19T15:19:07.430Z,2.55
2022-10-19T15:22:37.819Z,3.17
2022-10-19T15:25:42.879Z,2.87
2022-10-19T15:28:47.656Z,2.80
2022-10-19T15:31:56.422Z,2.50
2022-10-19T15:34:59.675Z,2.83
2022-10-19T15:38:35.766Z,2.60
2022-10-19T15:41:40.693Z,2.60
2022-10-19T15:44:44.935Z,2.75
2022-10-19T15:48:08.174Z,1.95
2022-10-19T15:51:24.077Z,2.50
2022-10-19T15:54:28.214Z,2.43
2022-10-19T15:57:38.108Z,2.75
2022-10-19T16:00:43.331Z,3.37
2022-10-19T16:03:50.322Z,3.37
2022-10-19T16:06:54.894Z,3.70
2022-10-19T16:09:59.973Z,3.30
2022-10-19T16:13:03.442Z,2.75
2022-10-19T16:16:11.796Z,2.75
2022-10-19T16:19:17.523Z,4.00
2022-10-19T16:22:22.797Z,4.35
2022-10-19T16:25:26.396Z,3.90
2022-10-19T16:28:30.853Z,4.18
2022-10-19T16:31:34.756Z,3.35
2022-10-19T16:34:39.046Z,4.00
2022-10-19T16:37:42.997Z,3.70
2022-10-19T16:40:47.806Z,3.50
2022-10-19T16:43:57.561Z,3.42
2022-10-19T16:47:03.186Z,3.72
2022-10-19T16:50:11.676Z,3.50
2022-10-19T16:53:15.778Z,3.90
2022-10-19T16:56:20.574Z,3.90
2022-10-19T16:59:25.609Z,3.30
2022-10-19T17:02:30.681Z,3.58
2022-10-19T17:05:38.552Z,3.78
2022-10-19T17:09:30.230Z,3.20
2022-10-19T17:12:12.406Z,3.60
2022-10-19T17:15:41.520Z,3.60
2022-10-19T17:18:43.326Z,2.95
2022-10-19T17:21:49.338Z,3.45
2022-10-19T17:24:55.937Z,3.55
2022-10-19T17:28:01.228Z,3.60
2022-10-19T17:31:11.459Z,3.60
2022-10-19T17:34:16.179Z,3.40
2022-10-19T17:37:21.285Z,4.05
2022-10-19T17:40:33.623Z,8.13
2022-10-19T17:43:40.087Z,4.83
2022-10-19T17:46:45.029Z,3.80
2022-10-19T17:49:51.023Z,4.20
2022-10-19T17:52:56.751Z,4.68
2022-10-19T17:56:03.860Z,5.45
2022-10-19T17:59:09.615Z,5.70
2022-10-19T18:02:13.701Z,4.12
2022-10-19T18:05:18.745Z,4.85
2022-10-19T18:08:25.979Z,4.12
2022-10-19T18:11:40.359Z,4.10
2022-10-19T18:14:45.662Z,4.93
2022-10-19T18:17:50.105Z,4.45
2022-10-19T18:20:59.711Z,4.93
2022-10-19T18:24:09.148Z,4.45
2022-10-19T18:27:16.792Z,3.83
2022-10-19T18:30:21.874Z,4.78
2022-10-19T18:33:30.232Z,6.30
2022-10-19T18:36:38.896Z,8.13
2022-10-19T18:39:43.457Z,12.27
2022-10-19T18:42:48.648Z,11.30
2022-10-19T18:45:56.376Z,6.03
2022-10-19T18:49:02.081Z,3.40
2022-10-19T18:52:10.325Z,4.57
2022-10-19T18:55:16.566Z,4.10
2022-10-19T18:58:23.832Z,2.85
2022-10-19T19:01:29.956Z,2.78
2022-10-19T19:04:37.199Z,2.80
2022-10-19T19:07:42.128Z,2.60
2022-10-19T19:10:47.796Z,2.55
2022-10-19T19:14:00.426Z,2.25
2022-10-19T19:17:05.488Z,2.40
2022-10-19T19:20:10.858Z,2.37
2022-10-19T19:23:22.051Z,2.20
2022-10-19T19:26:29.308Z,2.67
2022-10-19T19:29:34.284Z,2.00
2022-10-19T19:32:41.907Z,2.00
2022-10-19T19:35:48.346Z,2.45
2022-10-19T19:38:55.630Z,2.45
2022-10-19T19:42:00.322Z,2.67
2022-10-19T19:45:10.523Z,2.30
2022-10-19T19:48:14.951Z,2.53
2022-10-19T19:51:21.574Z,2.70
2022-10-19T19:54:27.294Z,2.45
2022-10-19T19:57:31.893Z,3.20
2022-10-19T20:00:48.344Z,2.85
2022-10-19T20:04:11.809Z,3.00
2022-10-19T20:07:17.160Z,2.65
2022-10-19T20:10:22.889Z,3.00
2022-10-19T20:13:51.699Z,2.58
2022-10-19T20:16:57.809Z,3.20
2022-10-19T20:20:03.623Z,3.00
2022-10-19T20:23:08.645Z,2.93
2022-10-19T20:26:18.969Z,3.25
2022-10-19T20:29:37.710Z,3.03
2022-10-19T20:32:45.798Z,3.00
2022-10-19T20:35:53.050Z,2.80
2022-10-19T20:38:59.343Z,2.80
2022-10-19T20:42:04.063Z,2.60
2022-10-19T20:45:08.473Z,2.60
2022-10-19T20:48:13.110Z,2.67
2022-10-19T20:51:30.930Z,2.65
2022-10-19T20:54:38.481Z,2.80
2022-10-19T20:57:42.141Z,2.70
2022-10-19T21:00:47.367Z,3.50
2022-10-19T21:03:54.985Z,3.03
2022-10-19T21:06:58.786Z,2.80
2022-10-19T21:10:03.148Z,2.63
2022-10-19T21:13:07.983Z,2.65
2022-10-19T21:16:20.490Z,3.00
2022-10-19T21:19:25.846Z,2.87
2022-10-19T21:22:28.986Z,3.00
2022-10-19T21:25:32.475Z,3.00
2022-10-19T21:28:36.257Z,2.60
2022-10-19T21:31:44.127Z,2.53
2022-10-19T21:34:49.459Z,2.70
2022-10-19T21:37:53.034Z,2.80
2022-10-19T21:40:59.652Z,2.67
2022-10-19T21:44:04.165Z,2.97
2022-10-19T21:47:08.067Z,3.15
2022-10-19T21:50:11.499Z,3.55
2022-10-19T21:53:19.531Z,3.62
2022-10-19T21:56:22.916Z,4.00
2022-10-19T21:59:26.416Z,4.10
2022-10-19T22:02:29.722Z,3.42
2022-10-19T22:05:33.605Z,3.93
2022-10-19T22:08:36.986Z,4.60
2022-10-19T22:11:40.975Z,5.82
2022-10-19T22:14:45.362Z,5.80
2022-10-19T22:17:48.699Z,6.73
2022-10-19T22:20:53.517Z,6.10
2022-10-19T22:24:02.390Z,5.75
2022-10-19T22:27:05.583Z,5.00
2022-10-19T22:30:09.543Z,4.77
2022-10-19T22:33:12.708Z,4.72
2022-10-19T22:36:16.665Z,5.28
2022-10-19T22:39:21.593Z,4.65
2022-10-19T22:42:25.071Z,5.50
2022-10-19T22:45:29.666Z,6.12
2022-10-19T22:48:35.419Z,5.62
2022-10-19T22:51:38.866Z,6.00
2022-10-19T22:54:43.733Z,6.20
2022-10-19T22:57:47.946Z,5.95
2022-10-19T23:01:06.006Z,6.05
2022-10-19T23:04:09.233Z,6.20
2022-10-19T23:07:12.888Z,5.72
2022-10-19T23:10:16.366Z,5.62
2022-10-19T23:13:20.971Z,5.90
2022-10-19T23:16:24.143Z,5.62
2022-10-19T23:19:28.224Z,5.70
2022-10-19T23:22:31.804Z,5.70
2022-10-19T23:25:35.726Z,5.97
2022-10-19T23:28:40.993Z,5.78
2022-10-19T23:31:44.420Z,5.55
2022-10-19T23:34:48.518Z,5.97
2022-10-19T23:37:52.005Z,5.90
2022-10-19T23:40:55.437Z,5.68
2022-10-19T23:43:58.955Z,6.13
2022-10-19T23:47:02.038Z,6.25
2022-10-19T23:50:06.254Z,7.28
2022-10-19T23:53:09.601Z,7.70
2022-10-19T23:56:14.759Z,7.03
2022-10-19T23:59:18.052Z,7.68
